Angy R — C6ZD5 — position and weather

sailwx.info

Track history (hours):
 
Tides and Currents Weather Stations Pressure Air Temp Water Temp Dewpoint Dewpoint Depression Visibility Wind Speed Wind Dir Waves Ship Positions

Angy R

Last reported at 2017-Sep-25 11:57 UTC. Time now 2017-Sep-26 02:03 UTC.
Position N 36°44' E 013°06'.

Length 186 m; draft 10.9 m.

Type: Ship. MMSI: 311053100.

Date/timePositionNaut miles runAvg speedWind from/ knotsBaromVisibWave heightAir tempDewpointWater temp
2017-Sep-25 11:57N 36°44' E 013°06'612.9
2017-Sep-25 11:29N 36°42' E 013°13'612.7
2017-Sep-25 11:00N 36°41' E 013°20'1412.5
2017-Sep-25 09:51N 36°36' E 013°38'412.5
2017-Sep-25 09:30N 36°35' E 013°43'612.4
2017-Sep-25 09:00N 36°33' E 013°50'612.3
2017-Sep-25 08:30N 36°32' E 013°58'612.2
2017-Sep-25 08:00N 36°30' E 014°05'612.0
2017-Sep-25 07:30N 36°28' E 014°12'612.1
2017-Sep-25 07:00N 36°26' E 014°19'611.9
2017-Sep-25 06:30N 36°25' E 014°26'612.3
2017-Sep-25 06:01N 36°26' E 014°34'612.5
2017-Sep-25 05:30N 36°25' E 014°42'612.4
2017-Sep-25 05:00N 36°24' E 014°50'612.5
2017-Sep-25 04:29N 36°24' E 014°57'612.7
2017-Sep-25 04:01N 36°24' E 015°05'  
2017-Sep-21 04:19N 43°30' E 030°00'813.6
2017-Sep-21 03:45N 43°37' E 030°03'4012.7
2017-Sep-21 00:35N 44°16' E 030°19'212.3
2017-Sep-21 00:25N 44°18' E 030°20'2312.3
2017-Sep-20 22:34N 44°40' E 030°29'112.2
2017-Sep-20 22:29N 44°40' E 030°30'811.9
2017-Sep-20 21:49N 44°48' E 030°33'411.7
2017-Sep-20 21:30N 44°52' E 030°34'611.9
2017-Sep-20 21:01N 44°57' E 030°37'611.9
2017-Sep-20 20:31N 45°03' E 030°39'611.8
2017-Sep-20 20:00N 45°09' E 030°42'612.1
2017-Sep-20 19:30N 45°14' E 030°44'612.0
2017-Sep-20 19:00N 45°20' E 030°46'612.2
2017-Sep-20 18:31N 45°26' E 030°49'1012.3
2017-Sep-20 17:43N 45°35' E 030°53'312.5
2017-Sep-20 17:30N 45°38' E 030°54'612.4
2017-Sep-20 16:59N 45°44' E 030°57'612.6
2017-Sep-20 16:31N 45°50' E 030°59'612.6
2017-Sep-20 16:01N 45°56' E 031°02'612.6
2017-Sep-20 15:31N 46°02' E 031°05'611.0
2017-Sep-20 15:00N 46°07' E 031°04'1312.5
2017-Sep-20 13:58N 46°18' E 030°53'612.8
2017-Sep-20 13:30N 46°23' E 030°51'612.6
2017-Sep-20 13:01N 46°29' E 030°49'2 4.6
2017-Sep-20 12:30N 46°30' E 030°45'1 1.1
2017-Sep-20 12:01N 46°30' E 030°45'0 0.3
2017-Sep-20 11:28N 46°30' E 030°44'0 0.0
2017-Sep-20 10:58N 46°30' E 030°44'0 0.0
2017-Sep-20 10:28N 46°30' E 030°44'0 0.0
2017-Sep-20 09:58N 46°30' E 030°44'0 0.0
2017-Sep-20 09:28N 46°30' E 030°44'0 0.0
2017-Sep-20 08:58N 46°30' E 030°44'0 0.0
2017-Sep-20 08:28N 46°30' E 030°44'0 0.0
2017-Sep-20 07:58N 46°30' E 030°44'0 0.0
2017-Sep-20 07:28N 46°30' E 030°44'0 0.0
2017-Sep-20 06:58N 46°30' E 030°44'0 0.0
2017-Sep-20 06:28N 46°30' E 030°44'0 0.0
2017-Sep-20 05:58N 46°30' E 030°44'0 0.0
2017-Sep-20 05:28N 46°30' E 030°44'0 0.0
2017-Sep-20 04:58N 46°30' E 030°44'0 0.0
2017-Sep-20 04:28N 46°30' E 030°44'0 0.0
2017-Sep-20 03:58N 46°30' E 030°44'0 0.0
2017-Sep-20 03:28N 46°30' E 030°44'0 0.0
2017-Sep-20 02:58N 46°30' E 030°44'0 0.0
2017-Sep-20 02:28N 46°30' E 030°44'0 0.0
2017-Sep-20 01:58N 46°30' E 030°44'0 0.0
2017-Sep-20 01:28N 46°30' E 030°44'0 0.0
2017-Sep-20 00:58N 46°30' E 030°44'0 0.0
2017-Sep-20 00:28N 46°30' E 030°44'0 0.0
2017-Sep-19 23:58N 46°30' E 030°44'0 0.0
2017-Sep-19 23:28N 46°30' E 030°44'0 0.0
2017-Sep-19 22:58N 46°30' E 030°44'0 0.0
2017-Sep-19 22:28N 46°30' E 030°44'0 0.0
2017-Sep-19 21:58N 46°30' E 030°44'0 0.0
2017-Sep-19 21:28N 46°30' E 030°44'0 0.0
2017-Sep-19 20:58N 46°30' E 030°44'0 0.0
2017-Sep-19 20:25N 46°30' E 030°44'0 0.0
2017-Sep-19 19:58N 46°30' E 030°44'0 0.0
2017-Sep-19 19:28N 46°30' E 030°44'0 0.0
2017-Sep-19 18:58N 46°30' E 030°44'0 0.0
2017-Sep-19 18:28N 46°30' E 030°44'0 0.0
2017-Sep-19 17:55N 46°30' E 030°44'0 0.0
2017-Sep-19 17:28N 46°30' E 030°44'0 0.0
2017-Sep-19 16:58N 46°30' E 030°44'0 0.0
2017-Sep-19 16:25N 46°30' E 030°44'0 0.0
2017-Sep-19 15:58N 46°30' E 030°44'0 0.0
2017-Sep-19 15:28N 46°30' E 030°44'0 0.0
2017-Sep-19 14:58N 46°30' E 030°44'0 0.0
2017-Sep-19 14:28N 46°30' E 030°44'0 0.0
2017-Sep-19 13:58N 46°30' E 030°44'0 0.0
2017-Sep-19 13:28N 46°30' E 030°44'0 0.0
2017-Sep-19 12:58N 46°30' E 030°44'0 0.0
2017-Sep-19 12:28N 46°30' E 030°44'0 0.0
2017-Sep-19 11:58N 46°30' E 030°44'0 0.0
2017-Sep-19 11:28N 46°30' E 030°44'0 0.0
2017-Sep-19 10:58N 46°30' E 030°44'0 0.0
2017-Sep-19 10:28N 46°30' E 030°44'0 0.0
2017-Sep-19 09:58N 46°30' E 030°44'0 0.0
2017-Sep-19 09:28N 46°30' E 030°44'0 0.0
2017-Sep-19 08:58N 46°30' E 030°44'0 0.0
2017-Sep-19 08:28N 46°30' E 030°44'0 0.0
2017-Sep-19 07:58N 46°30' E 030°44'0 0.0
2017-Sep-19 07:28N 46°30' E 030°44'0 0.0
2017-Sep-19 06:58N 46°30' E 030°44'0 0.0
2017-Sep-19 06:28N 46°30' E 030°44'0 0.0
2017-Sep-19 05:58N 46°30' E 030°44'0 0.0
2017-Sep-19 05:28N 46°30' E 030°44'0 0.0
2017-Sep-19 04:58N 46°30' E 030°44'0 0.0
2017-Sep-19 04:28N 46°30' E 030°44'0 0.0
2017-Sep-19 03:58N 46°30' E 030°44'0 0.0
2017-Sep-19 03:28N 46°30' E 030°44'0 0.0
2017-Sep-19 02:58N 46°30' E 030°44'0 0.0
2017-Sep-19 02:28N 46°30' E 030°44'0 0.0
2017-Sep-19 01:58N 46°30' E 030°44'0 0.0
2017-Sep-19 01:28N 46°30' E 030°44'0 0.0
2017-Sep-19 00:58N 46°30' E 030°44'0 0.0
2017-Sep-19 00:28N 46°30' E 030°44'0 0.0
2017-Sep-18 23:58N 46°30' E 030°44'0 0.0
2017-Sep-18 23:28N 46°30' E 030°44'0 0.0
2017-Sep-18 22:58N 46°30' E 030°44'0 0.0
2017-Sep-18 22:28N 46°30' E 030°44'0 0.0
2017-Sep-18 21:58N 46°30' E 030°44'0 0.0
2017-Sep-18 21:28N 46°30' E 030°44'0 0.0
2017-Sep-18 20:58N 46°30' E 030°44'0 0.0
2017-Sep-18 20:28N 46°30' E 030°44'0 0.0
2017-Sep-18 19:58N 46°30' E 030°44'0 0.1
2017-Sep-18 19:28N 46°30' E 030°44'0 0.0
2017-Sep-18 18:58N 46°30' E 030°44'0 0.0
2017-Sep-18 18:25N 46°30' E 030°44'0 0.0
2017-Sep-18 17:58N 46°30' E 030°44'0 0.0
2017-Sep-18 17:29N 46°30' E 030°44'0 0.1
2017-Sep-18 17:00N 46°30' E 030°44'0 0.0
2017-Sep-18 16:26N 46°30' E 030°44'0 0.0
2017-Sep-18 15:59N 46°30' E 030°44'0 0.0
2017-Sep-18 15:26N 46°30' E 030°44'0 0.0
2017-Sep-18 14:59N 46°30' E 030°44'0 0.0
2017-Sep-18 14:29N 46°30' E 030°44'0 0.0
2017-Sep-18 13:59N 46°30' E 030°44'0 0.0
2017-Sep-18 13:29N 46°30' E 030°44'0 0.0
2017-Sep-18 12:59N 46°30' E 030°44'0 0.0
2017-Sep-18 12:29N 46°30' E 030°44'0 0.0
2017-Sep-18 11:59N 46°30' E 030°44'0 0.0
2017-Sep-18 11:29N 46°30' E 030°44'0 0.0
2017-Sep-18 10:59N 46°30' E 030°44'0 0.0
2017-Sep-18 10:29N 46°30' E 030°44'0 0.0
2017-Sep-18 09:59N 46°30' E 030°44'0 0.0
2017-Sep-18 09:29N 46°30' E 030°44'0 0.0
2017-Sep-18 08:59N 46°30' E 030°44'0 0.0
2017-Sep-18 08:29N 46°30' E 030°44'0 0.0
2017-Sep-18 07:59N 46°30' E 030°44'0 0.0
2017-Sep-18 07:29N 46°30' E 030°44'0 0.0
2017-Sep-18 06:59N 46°30' E 030°44'0 0.0
2017-Sep-18 06:26N 46°30' E 030°44'0 0.0
2017-Sep-18 05:59N 46°30' E 030°44'0 0.0
2017-Sep-18 05:29N 46°30' E 030°44'0 0.0
2017-Sep-18 04:59N 46°30' E 030°44'0 0.0
2017-Sep-18 04:29N 46°30' E 030°44'0 0.0
2017-Sep-18 03:59N 46°30' E 030°44'0 0.0
2017-Sep-18 03:29N 46°30' E 030°44'0 0.0
2017-Sep-18 02:59N 46°30' E 030°44'0 0.0
2017-Sep-18 02:29N 46°30' E 030°44'0 0.0
2017-Sep-18 01:59N 46°30' E 030°44'0 0.0
2017-Sep-18 01:29N 46°30' E 030°44'0 0.0
2017-Sep-18 00:59N 46°30' E 030°44'0 0.0
2017-Sep-18 00:29N 46°30' E 030°44'0 0.0
2017-Sep-17 23:56N 46°30' E 030°44'0 0.0
2017-Sep-17 23:29N 46°30' E 030°44'0 0.0
2017-Sep-17 22:59N 46°30' E 030°44'0 0.0
2017-Sep-17 22:29N 46°30' E 030°44'0 0.0
2017-Sep-17 21:59N 46°30' E 030°44'0 0.0
2017-Sep-17 21:29N 46°30' E 030°44'0 0.0
2017-Sep-17 20:59N 46°30' E 030°44'0 0.0
2017-Sep-17 20:29N 46°30' E 030°44'0 0.0
2017-Sep-17 19:59N 46°30' E 030°44'0 0.0
2017-Sep-17 19:29N 46°30' E 030°44'0 0.0
2017-Sep-17 18:59N 46°30' E 030°44'0 0.0
2017-Sep-17 18:29N 46°30' E 030°44'0 0.0
2017-Sep-17 17:59N 46°30' E 030°44'0 0.0
2017-Sep-17 17:29N 46°30' E 030°44'0 0.0
2017-Sep-17 16:59N 46°30' E 030°44'0 0.0
2017-Sep-17 16:29N 46°30' E 030°44'0 0.0
2017-Sep-17 15:59N 46°30' E 030°44'0 0.0
2017-Sep-17 15:29N 46°30' E 030°44'0 0.0
2017-Sep-17 14:59N 46°30' E 030°44'0 0.0
2017-Sep-17 14:29N 46°30' E 030°44'0 0.0
2017-Sep-17 13:59N 46°30' E 030°44'0 0.0
2017-Sep-17 13:29N 46°30' E 030°44'0 0.0
2017-Sep-17 12:59N 46°30' E 030°44'0 0.0
2017-Sep-17 12:29N 46°30' E 030°44'0 0.0
2017-Sep-17 11:59N 46°30' E 030°44'0 0.0
2017-Sep-17 11:29N 46°30' E 030°44'0 0.0
2017-Sep-17 10:59N 46°30' E 030°44'0 0.0
2017-Sep-17 10:29N 46°30' E 030°44'0 0.0
2017-Sep-17 09:59N 46°30' E 030°44'0 0.0
2017-Sep-17 09:29N 46°30' E 030°44'0 0.0
2017-Sep-17 08:59N 46°30' E 030°44'0 0.0
2017-Sep-17 08:29N 46°30' E 030°44'0 0.0
2017-Sep-17 07:59N 46°30' E 030°44'0 0.0
2017-Sep-17 07:29N 46°30' E 030°44'0 0.0
2017-Sep-17 06:59N 46°30' E 030°44'0 0.0
2017-Sep-17 06:29N 46°30' E 030°44'0 0.0
2017-Sep-17 05:59N 46°30' E 030°44'0 0.0
2017-Sep-17 05:29N 46°30' E 030°44'0 0.0
2017-Sep-17 04:59N 46°30' E 030°44'0 0.0
2017-Sep-17 04:29N 46°30' E 030°44'0 0.0
2017-Sep-17 03:59N 46°30' E 030°44'0 0.0
2017-Sep-17 03:29N 46°30' E 030°44'0 0.0
2017-Sep-17 02:59N 46°30' E 030°44'0 0.0
2017-Sep-17 02:29N 46°30' E 030°44'0 0.0
2017-Sep-17 01:59N 46°30' E 030°44'0 0.0
2017-Sep-17 01:29N 46°30' E 030°44'0 0.0
2017-Sep-17 00:59N 46°30' E 030°44'0 0.0
2017-Sep-17 00:29N 46°30' E 030°44'0 0.0
2017-Sep-16 23:59N 46°30' E 030°44'0 0.0
2017-Sep-16 23:29N 46°30' E 030°44'0 0.0
2017-Sep-16 22:59N 46°30' E 030°44'0 0.0
2017-Sep-16 22:29N 46°30' E 030°44'0 0.0
2017-Sep-16 21:56N 46°30' E 030°44'0 0.0
2017-Sep-16 21:26N 46°30' E 030°44'0 0.0
2017-Sep-16 20:59N 46°30' E 030°44'0 0.0
2017-Sep-16 20:29N 46°30' E 030°44'0 0.0
2017-Sep-16 19:59N 46°30' E 030°44'0 0.0
2017-Sep-16 19:29N 46°30' E 030°44'0 0.0
2017-Sep-16 18:59N 46°30' E 030°44'0 0.0
2017-Sep-16 18:26N 46°30' E 030°44'0 0.0
2017-Sep-16 17:59N 46°30' E 030°44'0 0.0
2017-Sep-16 17:20N 46°30' E 030°44'0 0.0
2017-Sep-16 16:59N 46°30' E 030°44'0 0.0
2017-Sep-16 16:29N 46°30' E 030°44'0 0.0
2017-Sep-16 15:56N 46°30' E 030°44'0 0.0
2017-Sep-16 15:05N 46°30' E 030°44'0 0.0
2017-Sep-16 14:59N 46°30' E 030°44'0 0.0
2017-Sep-16 14:29N 46°30' E 030°44'0 0.0
2017-Sep-16 13:59N 46°30' E 030°44'0 0.0
2017-Sep-16 13:26N 46°30' E 030°44'0 0.0
2017-Sep-16 12:56N 46°30' E 030°44'0 0.0
2017-Sep-16 12:29N 46°30' E 030°44'0 0.0
2017-Sep-16 11:59N 46°30' E 030°44'0 0.0
2017-Sep-16 11:20N 46°30' E 030°44'0 0.0
2017-Sep-16 10:41N 46°30' E 030°44'0 0.0
2017-Sep-16 10:23N 46°30' E 030°44'0 0.0
2017-Sep-16 09:50N 46°30' E 030°44'0 0.0
2017-Sep-16 09:29N 46°30' E 030°44'0 0.0
2017-Sep-16 08:59N 46°30' E 030°44'0 0.0
2017-Sep-16 08:26N 46°30' E 030°44'0 0.0
2017-Sep-16 07:59N 46°30' E 030°44'0 0.0
2017-Sep-16 07:26N 46°30' E 030°44'0 0.0
2017-Sep-16 06:59N 46°30' E 030°44'0 0.0
2017-Sep-16 06:29N 46°30' E 030°44'0 0.0
2017-Sep-16 05:59N 46°30' E 030°44'0 0.0
2017-Sep-16 05:23N 46°30' E 030°44'0 0.0
2017-Sep-16 04:59N 46°30' E 030°44'0 0.0
2017-Sep-16 04:29N 46°30' E 030°44'0 0.0
2017-Sep-16 03:53N 46°30' E 030°44'0 0.0
2017-Sep-16 03:23N 46°30' E 030°44'0 0.0
2017-Sep-16 02:59N 46°30' E 030°44'0 0.0
2017-Sep-16 02:29N 46°30' E 030°44'0 0.0
2017-Sep-16 01:56N 46°30' E 030°44'0 0.0
2017-Sep-16 01:08N 46°30' E 030°44'0 0.0
2017-Sep-16 00:38N 46°30' E 030°44'0 0.0
2017-Sep-16 00:23N 46°30' E 030°44'0 0.0
2017-Sep-15 23:56N 46°30' E 030°44'0 0.0
2017-Sep-15 23:14N 46°30' E 030°44'0 0.0
2017-Sep-15 22:50N 46°30' E 030°44'0 0.0
2017-Sep-15 22:29N 46°30' E 030°44'0 0.0
2017-Sep-15 21:56N 46°30' E 030°44'0 0.0
2017-Sep-15 21:26N 46°30' E 030°44'0 0.0
2017-Sep-15 20:47N 46°30' E 030°44'0 0.0
2017-Sep-15 20:26N 46°30' E 030°44'0 0.0
2017-Sep-15 19:53N 46°30' E 030°44'0 0.0
2017-Sep-15 19:26N 46°30' E 030°44'0 0.0
2017-Sep-15 18:47N 46°30' E 030°44'0 0.0
2017-Sep-15 18:26N 46°30' E 030°44'0 0.0
2017-Sep-15 17:59N 46°30' E 030°44'0 0.0
2017-Sep-15 17:26N 46°30' E 030°44'0 0.0
2017-Sep-15 16:59N 46°30' E 030°44'0 0.0
2017-Sep-15 16:23N 46°30' E 030°44'0 0.0
2017-Sep-15 15:56N 46°30' E 030°44'0 0.0
2017-Sep-15 15:29N 46°30' E 030°44'0 0.3
2017-Sep-15 15:00N 46°30' E 030°45'1 2.3
2017-Sep-15 14:30N 46°30' E 030°46'0 0.2
2017-Sep-15 14:00N 46°30' E 030°46'1 1.8
2017-Sep-15 13:30N 46°30' E 030°47'3 6.8
2017-Sep-15 13:00N 46°28' E 030°51'4 7.5
2017-Sep-15 12:30N 46°24' E 030°52'611.4
2017-Sep-15 12:00N 46°19' E 030°54'  
Track history (hours):
 
Tides and Currents Weather Stations Pressure Air Temp Water Temp Dewpoint Dewpoint Depression Visibility Wind Speed Wind Dir Waves Ship Positions

Angy R

Last reported at 2017-Sep-25 11:57 UTC. Time now 2017-Sep-26 02:03 UTC.
Position N 36°44' E 013°06'.

Length 186 m; draft 10.9 m.

Type: Ship. MMSI: 311053100.

Date/timePositionNaut miles runAvg speedWind from/ knotsBaromVisibWave heightAir tempDewpointWater temp
2017-Sep-25 11:57N 36°44' E 013°06'612.9
2017-Sep-25 11:29N 36°42' E 013°13'612.7
2017-Sep-25 11:00N 36°41' E 013°20'1412.5
2017-Sep-25 09:51N 36°36' E 013°38'412.5
2017-Sep-25 09:30N 36°35' E 013°43'612.4
2017-Sep-25 09:00N 36°33' E 013°50'612.3
2017-Sep-25 08:30N 36°32' E 013°58'612.2
2017-Sep-25 08:00N 36°30' E 014°05'612.0
2017-Sep-25 07:30N 36°28' E 014°12'612.1
2017-Sep-25 07:00N 36°26' E 014°19'611.9
2017-Sep-25 06:30N 36°25' E 014°26'612.3
2017-Sep-25 06:01N 36°26' E 014°34'612.5
2017-Sep-25 05:30N 36°25' E 014°42'612.4
2017-Sep-25 05:00N 36°24' E 014°50'612.5
2017-Sep-25 04:29N 36°24' E 014°57'612.7
2017-Sep-25 04:01N 36°24' E 015°05'  
2017-Sep-21 04:19N 43°30' E 030°00'813.6
2017-Sep-21 03:45N 43°37' E 030°03'4012.7
2017-Sep-21 00:35N 44°16' E 030°19'212.3
2017-Sep-21 00:25N 44°18' E 030°20'2312.3
2017-Sep-20 22:34N 44°40' E 030°29'112.2
2017-Sep-20 22:29N 44°40' E 030°30'811.9
2017-Sep-20 21:49N 44°48' E 030°33'411.7
2017-Sep-20 21:30N 44°52' E 030°34'611.9
2017-Sep-20 21:01N 44°57' E 030°37'611.9
2017-Sep-20 20:31N 45°03' E 030°39'611.8
2017-Sep-20 20:00N 45°09' E 030°42'612.1
2017-Sep-20 19:30N 45°14' E 030°44'612.0
2017-Sep-20 19:00N 45°20' E 030°46'612.2
2017-Sep-20 18:31N 45°26' E 030°49'1012.3
2017-Sep-20 17:43N 45°35' E 030°53'312.5
2017-Sep-20 17:30N 45°38' E 030°54'612.4
2017-Sep-20 16:59N 45°44' E 030°57'612.6
2017-Sep-20 16:31N 45°50' E 030°59'612.6
2017-Sep-20 16:01N 45°56' E 031°02'612.6
2017-Sep-20 15:31N 46°02' E 031°05'611.0
2017-Sep-20 15:00N 46°07' E 031°04'1312.5
2017-Sep-20 13:58N 46°18' E 030°53'612.8
2017-Sep-20 13:30N 46°23' E 030°51'612.6
2017-Sep-20 13:01N 46°29' E 030°49'2 4.6
2017-Sep-20 12:30N 46°30' E 030°45'1 1.1
2017-Sep-20 12:01N 46°30' E 030°45'0 0.3
2017-Sep-20 11:28N 46°30' E 030°44'0 0.0
2017-Sep-20 10:58N 46°30' E 030°44'0 0.0
2017-Sep-20 10:28N 46°30' E 030°44'0 0.0
2017-Sep-20 09:58N 46°30' E 030°44'0 0.0
2017-Sep-20 09:28N 46°30' E 030°44'0 0.0
2017-Sep-20 08:58N 46°30' E 030°44'0 0.0
2017-Sep-20 08:28N 46°30' E 030°44'0 0.0
2017-Sep-20 07:58N 46°30' E 030°44'0 0.0
2017-Sep-20 07:28N 46°30' E 030°44'0 0.0
2017-Sep-20 06:58N 46°30' E 030°44'0 0.0
2017-Sep-20 06:28N 46°30' E 030°44'0 0.0
2017-Sep-20 05:58N 46°30' E 030°44'0 0.0
2017-Sep-20 05:28N 46°30' E 030°44'0 0.0
2017-Sep-20 04:58N 46°30' E 030°44'0 0.0
2017-Sep-20 04:28N 46°30' E 030°44'0 0.0
2017-Sep-20 03:58N 46°30' E 030°44'0 0.0
2017-Sep-20 03:28N 46°30' E 030°44'0 0.0
2017-Sep-20 02:58N 46°30' E 030°44'0 0.0
2017-Sep-20 02:28N 46°30' E 030°44'0 0.0
2017-Sep-20 01:58N 46°30' E 030°44'0 0.0
2017-Sep-20 01:28N 46°30' E 030°44'0 0.0
2017-Sep-20 00:58N 46°30' E 030°44'0 0.0
2017-Sep-20 00:28N 46°30' E 030°44'0 0.0
2017-Sep-19 23:58N 46°30' E 030°44'0 0.0
2017-Sep-19 23:28N 46°30' E 030°44'0 0.0
2017-Sep-19 22:58N 46°30' E 030°44'0 0.0
2017-Sep-19 22:28N 46°30' E 030°44'0 0.0
2017-Sep-19 21:58N 46°30' E 030°44'0 0.0
2017-Sep-19 21:28N 46°30' E 030°44'0 0.0
2017-Sep-19 20:58N 46°30' E 030°44'0 0.0
2017-Sep-19 20:25N 46°30' E 030°44'0 0.0
2017-Sep-19 19:58N 46°30' E 030°44'0 0.0
2017-Sep-19 19:28N 46°30' E 030°44'0 0.0
2017-Sep-19 18:58N 46°30' E 030°44'0 0.0
2017-Sep-19 18:28N 46°30' E 030°44'0 0.0
2017-Sep-19 17:55N 46°30' E 030°44'0 0.0
2017-Sep-19 17:28N 46°30' E 030°44'0 0.0
2017-Sep-19 16:58N 46°30' E 030°44'0 0.0
2017-Sep-19 16:25N 46°30' E 030°44'0 0.0
2017-Sep-19 15:58N 46°30' E 030°44'0 0.0
2017-Sep-19 15:28N 46°30' E 030°44'0 0.0
2017-Sep-19 14:58N 46°30' E 030°44'0 0.0
2017-Sep-19 14:28N 46°30' E 030°44'0 0.0
2017-Sep-19 13:58N 46°30' E 030°44'0 0.0
2017-Sep-19 13:28N 46°30' E 030°44'0 0.0
2017-Sep-19 12:58N 46°30' E 030°44'0 0.0
2017-Sep-19 12:28N 46°30' E 030°44'0 0.0
2017-Sep-19 11:58N 46°30' E 030°44'0 0.0
2017-Sep-19 11:28N 46°30' E 030°44'0 0.0
2017-Sep-19 10:58N 46°30' E 030°44'0 0.0
2017-Sep-19 10:28N 46°30' E 030°44'0 0.0
2017-Sep-19 09:58N 46°30' E 030°44'0 0.0
2017-Sep-19 09:28N 46°30' E 030°44'0 0.0
2017-Sep-19 08:58N 46°30' E 030°44'0 0.0
2017-Sep-19 08:28N 46°30' E 030°44'0 0.0
2017-Sep-19 07:58N 46°30' E 030°44'0 0.0
2017-Sep-19 07:28N 46°30' E 030°44'0 0.0
2017-Sep-19 06:58N 46°30' E 030°44'0 0.0
2017-Sep-19 06:28N 46°30' E 030°44'0 0.0
2017-Sep-19 05:58N 46°30' E 030°44'0 0.0
2017-Sep-19 05:28N 46°30' E 030°44'0 0.0
2017-Sep-19 04:58N 46°30' E 030°44'0 0.0
2017-Sep-19 04:28N 46°30' E 030°44'0 0.0
2017-Sep-19 03:58N 46°30' E 030°44'0 0.0
2017-Sep-19 03:28N 46°30' E 030°44'0 0.0
2017-Sep-19 02:58N 46°30' E 030°44'0 0.0
2017-Sep-19 02:28N 46°30' E 030°44'0 0.0
2017-Sep-19 01:58N 46°30' E 030°44'0 0.0
2017-Sep-19 01:28N 46°30' E 030°44'0 0.0
2017-Sep-19 00:58N 46°30' E 030°44'0 0.0
2017-Sep-19 00:28N 46°30' E 030°44'0 0.0
2017-Sep-18 23:58N 46°30' E 030°44'0 0.0
2017-Sep-18 23:28N 46°30' E 030°44'0 0.0
2017-Sep-18 22:58N 46°30' E 030°44'0 0.0
2017-Sep-18 22:28N 46°30' E 030°44'0 0.0
2017-Sep-18 21:58N 46°30' E 030°44'0 0.0
2017-Sep-18 21:28N 46°30' E 030°44'0 0.0
2017-Sep-18 20:58N 46°30' E 030°44'0 0.0
2017-Sep-18 20:28N 46°30' E 030°44'0 0.0
2017-Sep-18 19:58N 46°30' E 030°44'0 0.1
2017-Sep-18 19:28N 46°30' E 030°44'0 0.0
2017-Sep-18 18:58N 46°30' E 030°44'0 0.0
2017-Sep-18 18:25N 46°30' E 030°44'0 0.0
2017-Sep-18 17:58N 46°30' E 030°44'0 0.0
2017-Sep-18 17:29N 46°30' E 030°44'0 0.1
2017-Sep-18 17:00N 46°30' E 030°44'0 0.0
2017-Sep-18 16:26N 46°30' E 030°44'0 0.0
2017-Sep-18 15:59N 46°30' E 030°44'0 0.0
2017-Sep-18 15:26N 46°30' E 030°44'0 0.0
2017-Sep-18 14:59N 46°30' E 030°44'0 0.0
2017-Sep-18 14:29N 46°30' E 030°44'0 0.0
2017-Sep-18 13:59N 46°30' E 030°44'0 0.0
2017-Sep-18 13:29N 46°30' E 030°44'0 0.0
2017-Sep-18 12:59N 46°30' E 030°44'0 0.0
2017-Sep-18 12:29N 46°30' E 030°44'0 0.0
2017-Sep-18 11:59N 46°30' E 030°44'0 0.0
2017-Sep-18 11:29N 46°30' E 030°44'0 0.0
2017-Sep-18 10:59N 46°30' E 030°44'0 0.0
2017-Sep-18 10:29N 46°30' E 030°44'0 0.0
2017-Sep-18 09:59N 46°30' E 030°44'0 0.0
2017-Sep-18 09:29N 46°30' E 030°44'0 0.0
2017-Sep-18 08:59N 46°30' E 030°44'0 0.0
2017-Sep-18 08:29N 46°30' E 030°44'0 0.0
2017-Sep-18 07:59N 46°30' E 030°44'0 0.0
2017-Sep-18 07:29N 46°30' E 030°44'0 0.0
2017-Sep-18 06:59N 46°30' E 030°44'0 0.0
2017-Sep-18 06:26N 46°30' E 030°44'0 0.0
2017-Sep-18 05:59N 46°30' E 030°44'0 0.0
2017-Sep-18 05:29N 46°30' E 030°44'0 0.0
2017-Sep-18 04:59N 46°30' E 030°44'0 0.0
2017-Sep-18 04:29N 46°30' E 030°44'0 0.0
2017-Sep-18 03:59N 46°30' E 030°44'0 0.0
2017-Sep-18 03:29N 46°30' E 030°44'0 0.0
2017-Sep-18 02:59N 46°30' E 030°44'0 0.0
2017-Sep-18 02:29N 46°30' E 030°44'0 0.0
2017-Sep-18 01:59N 46°30' E 030°44'0 0.0
2017-Sep-18 01:29N 46°30' E 030°44'0 0.0
2017-Sep-18 00:59N 46°30' E 030°44'0 0.0
2017-Sep-18 00:29N 46°30' E 030°44'0 0.0
2017-Sep-17 23:56N 46°30' E 030°44'0 0.0
2017-Sep-17 23:29N 46°30' E 030°44'0 0.0
2017-Sep-17 22:59N 46°30' E 030°44'0 0.0
2017-Sep-17 22:29N 46°30' E 030°44'0 0.0
2017-Sep-17 21:59N 46°30' E 030°44'0 0.0
2017-Sep-17 21:29N 46°30' E 030°44'0 0.0
2017-Sep-17 20:59N 46°30' E 030°44'0 0.0
2017-Sep-17 20:29N 46°30' E 030°44'0 0.0
2017-Sep-17 19:59N 46°30' E 030°44'0 0.0
2017-Sep-17 19:29N 46°30' E 030°44'0 0.0
2017-Sep-17 18:59N 46°30' E 030°44'0 0.0
2017-Sep-17 18:29N 46°30' E 030°44'0 0.0
2017-Sep-17 17:59N 46°30' E 030°44'0 0.0
2017-Sep-17 17:29N 46°30' E 030°44'0 0.0
2017-Sep-17 16:59N 46°30' E 030°44'0 0.0
2017-Sep-17 16:29N 46°30' E 030°44'0 0.0
2017-Sep-17 15:59N 46°30' E 030°44'0 0.0
2017-Sep-17 15:29N 46°30' E 030°44'0 0.0
2017-Sep-17 14:59N 46°30' E 030°44'0 0.0
2017-Sep-17 14:29N 46°30' E 030°44'0 0.0
2017-Sep-17 13:59N 46°30' E 030°44'0 0.0
2017-Sep-17 13:29N 46°30' E 030°44'0 0.0
2017-Sep-17 12:59N 46°30' E 030°44'0 0.0
2017-Sep-17 12:29N 46°30' E 030°44'0 0.0
2017-Sep-17 11:59N 46°30' E 030°44'0 0.0
2017-Sep-17 11:29N 46°30' E 030°44'0 0.0
2017-Sep-17 10:59N 46°30' E 030°44'0 0.0
2017-Sep-17 10:29N 46°30' E 030°44'0 0.0
2017-Sep-17 09:59N 46°30' E 030°44'0 0.0
2017-Sep-17 09:29N 46°30' E 030°44'0 0.0
2017-Sep-17 08:59N 46°30' E 030°44'0 0.0
2017-Sep-17 08:29N 46°30' E 030°44'0 0.0
2017-Sep-17 07:59N 46°30' E 030°44'0 0.0
2017-Sep-17 07:29N 46°30' E 030°44'0 0.0
2017-Sep-17 06:59N 46°30' E 030°44'0 0.0
2017-Sep-17 06:29N 46°30' E 030°44'0 0.0
2017-Sep-17 05:59N 46°30' E 030°44'0 0.0
2017-Sep-17 05:29N 46°30' E 030°44'0 0.0
2017-Sep-17 04:59N 46°30' E 030°44'0 0.0
2017-Sep-17 04:29N 46°30' E 030°44'0 0.0
2017-Sep-17 03:59N 46°30' E 030°44'0 0.0
2017-Sep-17 03:29N 46°30' E 030°44'0 0.0
2017-Sep-17 02:59N 46°30' E 030°44'0 0.0
2017-Sep-17 02:29N 46°30' E 030°44'0 0.0
2017-Sep-17 01:59N 46°30' E 030°44'0 0.0
2017-Sep-17 01:29N 46°30' E 030°44'0 0.0
2017-Sep-17 00:59N 46°30' E 030°44'0 0.0
2017-Sep-17 00:29N 46°30' E 030°44'0 0.0
2017-Sep-16 23:59N 46°30' E 030°44'0 0.0
2017-Sep-16 23:29N 46°30' E 030°44'0 0.0
2017-Sep-16 22:59N 46°30' E 030°44'0 0.0
2017-Sep-16 22:29N 46°30' E 030°44'0 0.0
2017-Sep-16 21:56N 46°30' E 030°44'0 0.0
2017-Sep-16 21:26N 46°30' E 030°44'0 0.0
2017-Sep-16 20:59N 46°30' E 030°44'0 0.0
2017-Sep-16 20:29N 46°30' E 030°44'0 0.0
2017-Sep-16 19:59N 46°30' E 030°44'0 0.0
2017-Sep-16 19:29N 46°30' E 030°44'0 0.0
2017-Sep-16 18:59N 46°30' E 030°44'0 0.0
2017-Sep-16 18:26N 46°30' E 030°44'0 0.0
2017-Sep-16 17:59N 46°30' E 030°44'0 0.0
2017-Sep-16 17:20N 46°30' E 030°44'0 0.0
2017-Sep-16 16:59N 46°30' E 030°44'0 0.0
2017-Sep-16 16:29N 46°30' E 030°44'0 0.0
2017-Sep-16 15:56N 46°30' E 030°44'0 0.0
2017-Sep-16 15:05N 46°30' E 030°44'0 0.0
2017-Sep-16 14:59N 46°30' E 030°44'0 0.0
2017-Sep-16 14:29N 46°30' E 030°44'0 0.0
2017-Sep-16 13:59N 46°30' E 030°44'0 0.0
2017-Sep-16 13:26N 46°30' E 030°44'0 0.0
2017-Sep-16 12:56N 46°30' E 030°44'0 0.0
2017-Sep-16 12:29N 46°30' E 030°44'0 0.0
2017-Sep-16 11:59N 46°30' E 030°44'0 0.0
2017-Sep-16 11:20N 46°30' E 030°44'0 0.0
2017-Sep-16 10:41N 46°30' E 030°44'0 0.0
2017-Sep-16 10:23N 46°30' E 030°44'0 0.0
2017-Sep-16 09:50N 46°30' E 030°44'0 0.0
2017-Sep-16 09:29N 46°30' E 030°44'0 0.0
2017-Sep-16 08:59N 46°30' E 030°44'0 0.0
2017-Sep-16 08:26N 46°30' E 030°44'0 0.0
2017-Sep-16 07:59N 46°30' E 030°44'0 0.0
2017-Sep-16 07:26N 46°30' E 030°44'0 0.0
2017-Sep-16 06:59N 46°30' E 030°44'0 0.0
2017-Sep-16 06:29N 46°30' E 030°44'0 0.0
2017-Sep-16 05:59N 46°30' E 030°44'0 0.0
2017-Sep-16 05:23N 46°30' E 030°44'0 0.0
2017-Sep-16 04:59N 46°30' E 030°44'0 0.0
2017-Sep-16 04:29N 46°30' E 030°44'0 0.0
2017-Sep-16 03:53N 46°30' E 030°44'0 0.0
2017-Sep-16 03:23N 46°30' E 030°44'0 0.0
2017-Sep-16 02:59N 46°30' E 030°44'0 0.0
2017-Sep-16 02:29N 46°30' E 030°44'0 0.0
2017-Sep-16 01:56N 46°30' E 030°44'0 0.0
2017-Sep-16 01:08N 46°30' E 030°44'0 0.0
2017-Sep-16 00:38N 46°30' E 030°44'0 0.0
2017-Sep-16 00:23N 46°30' E 030°44'0 0.0
2017-Sep-15 23:56N 46°30' E 030°44'0 0.0
2017-Sep-15 23:14N 46°30' E 030°44'0 0.0
2017-Sep-15 22:50N 46°30' E 030°44'0 0.0
2017-Sep-15 22:29N 46°30' E 030°44'0 0.0
2017-Sep-15 21:56N 46°30' E 030°44'0 0.0
2017-Sep-15 21:26N 46°30' E 030°44'0 0.0
2017-Sep-15 20:47N 46°30' E 030°44'0 0.0
2017-Sep-15 20:26N 46°30' E 030°44'0 0.0
2017-Sep-15 19:53N 46°30' E 030°44'0 0.0
2017-Sep-15 19:26N 46°30' E 030°44'0 0.0
2017-Sep-15 18:47N 46°30' E 030°44'0 0.0
2017-Sep-15 18:26N 46°30' E 030°44'0 0.0
2017-Sep-15 17:59N 46°30' E 030°44'0 0.0
2017-Sep-15 17:26N 46°30' E 030°44'0 0.0
2017-Sep-15 16:59N 46°30' E 030°44'0 0.0
2017-Sep-15 16:23N 46°30' E 030°44'0 0.0
2017-Sep-15 15:56N 46°30' E 030°44'0 0.0
2017-Sep-15 15:29N 46°30' E 030°44'0 0.3
2017-Sep-15 15:00N 46°30' E 030°45'1 2.3
2017-Sep-15 14:30N 46°30' E 030°46'0 0.2
2017-Sep-15 14:00N 46°30' E 030°46'1 1.8
2017-Sep-15 13:30N 46°30' E 030°47'3 6.8
2017-Sep-15 13:00N 46°28' E 030°51'4 7.5
2017-Sep-15 12:30N 46°24' E 030°52'611.4
2017-Sep-15 12:00N 46°19' E 030°54'  

Dump ship's entire track history